CheckWX is a tool to help pilots better visualize weather data.  It is not intended as a substitute for an official pre-flight weather briefing.

21:11:38 UTC

VOHS TAF
Rajiv Gandhi International Airport
Hyderabad, India
TAF VOHS 182000Z 1821/1906 20007KT 5000 HZ FEW015 TEMPO 1900/1903 1500 BR BECMG 1904/1906 14008KT 6000 SCT020 SCT025

Feb-18@
21:00 UTC

Feb-18 @ 21:00 UTC

Feb-19@
04:00 UTC

Feb-19 @ 04:00 UTC

TAF VOHS 182000Z 1821/1906 20007KT 5000 HZ FEW015
Wind
  • 200° at 7 KTS
Visibility
5,005 meters
Conditions
Haze
Cloud Levels
  • Few at 1,500' AGL

Feb-19@
00:00 UTC

Feb-19 @ 00:00 UTC

Feb-19@
03:00 UTC

Feb-19 @ 03:00 UTC

TEMPO 1900/1903 1500 BR

Temporary

TemporaryChanges expected for less than half the time period

Visibility
1,497 meters
Conditions
Mist

Feb-19@
04:00 UTC

Feb-19 @ 04:00 UTC

Feb-19@
06:00 UTC

Feb-19 @ 06:00 UTC

BECMG 1904/1906 14008KT 6000 SCT020 SCT025

Becoming

BecomingConditions expected by Tue, Feb 19, 2019 @ 06:00 UTC

Wind
  • 140° at 8 KTS
Visibility
6,003 meters
Conditions
Haze
Cloud Levels
  • Scattered at 2,000' AGL
  • Scattered at 2,500' AGL